Time;durP1;ratioP1;P1;durP2;ratioP2;P2;SDS_P1;SDS_P2;PMS_P1;PMS_P2;Temp;Humidity;BMP_temperature;BMP_pressure;BME280_temperature;BME280_humidity;BME280_pressure;Samples;Min_cycle;Max_cycle;Signal;HPM_P1;HPM_P2
2022/02/26 00:01:22;;;;;;;4.70;3.13;;;5.00;99.90;;;;;;4983276;28;20360;-68
2022/02/26 00:03:48;;;;;;;10.43;3.00;;;5.00;99.90;;;;;;4974997;28;20598;-70
2022/02/26 00:06:13;;;;;;;7.70;3.80;;;5.00;99.90;;;;;;4974939;28;20465;-68
2022/02/26 00:08:39;;;;;;;12.80;3.73;;;5.00;99.90;;;;;;4995474;28;20217;-68
2022/02/26 00:11:05;;;;;;;8.03;3.77;;;5.00;99.90;;;;;;4975302;28;20733;-68
2022/02/26 00:13:31;;;;;;;14.27;4.70;;;5.00;99.90;;;;;;4978079;28;20221;-69
2022/02/26 00:15:56;;;;;;;5.83;3.37;;;5.00;99.90;;;;;;4979681;28;20453;-70
2022/02/26 00:18:22;;;;;;;3.50;3.00;;;5.00;99.90;;;;;;4978473;28;20461;-70
2022/02/26 00:20:48;;;;;;;6.17;3.73;;;5.00;99.90;;;;;;4987008;28;20223;-68
2022/02/26 00:23:14;;;;;;;6.60;3.67;;;5.00;99.90;;;;;;4979529;28;20225;-68
2022/02/26 00:25:39;;;;;;;6.93;2.90;;;5.00;99.90;;;;;;4970752;28;20454;-68
2022/02/26 00:28:06;;;;;;;6.37;3.40;;;5.00;99.90;;;;;;4976708;28;20292;-68
2022/02/26 00:30:32;;;;;;;4.40;3.67;;;5.00;99.90;;;;;;4988490;28;20617;-69
2022/02/26 00:32:57;;;;;;;4.53;3.07;;;5.00;99.90;;;;;;4971019;28;20235;-69
2022/02/26 00:35:23;;;;;;;6.60;2.57;;;5.00;99.90;;;;;;4979384;28;20317;-69
2022/02/26 00:37:49;;;;;;;4.07;3.33;;;5.00;99.90;;;;;;4975119;28;20812;-68
2022/02/26 00:40:15;;;;;;;5.83;3.43;;;5.00;99.90;;;;;;4978811;28;20226;-69
2022/02/26 00:42:40;;;;;;;3.67;3.20;;;5.00;99.90;;;;;;4964948;28;20237;-71
2022/02/26 00:45:07;;;;;;;4.97;3.30;;;5.00;99.90;;;;;;4977678;28;20462;-68
2022/02/26 00:47:34;;;;;;;6.20;3.20;;;5.00;99.90;;;;;;4976744;28;20217;-69
2022/02/26 00:50:00;;;;;;;3.63;2.57;;;5.00;99.90;;;;;;4968900;28;21061;-69
2022/02/26 00:52:30;;;;;;;5.40;3.17;;;5.00;99.90;;;;;;4977249;28;20536;-69
2022/02/26 00:54:57;;;;;;;7.70;3.97;;;5.00;99.90;;;;;;4967877;28;20462;-70
2022/02/26 00:57:23;;;;;;;9.10;3.57;;;5.00;99.90;;;;;;4968117;28;20465;-69
2022/02/26 00:59:49;;;;;;;3.37;2.70;;;5.00;99.90;;;;;;4997028;28;20536;-67
2022/02/26 01:02:17;;;;;;;5.47;2.73;;;5.00;99.90;;;;;;4975204;28;20245;-68
2022/02/26 01:04:43;;;;;;;4.53;2.80;;;5.00;99.90;;;;;;4981969;28;20217;-69
2022/02/26 01:07:09;;;;;;;13.97;2.93;;;5.00;99.90;;;;;;4980148;28;20460;-68
2022/02/26 01:09:37;;;;;;;7.70;2.40;;;5.00;99.90;;;;;;4983585;28;20461;-68
2022/02/26 01:12:05;;;;;;;4.77;2.40;;;5.00;99.90;;;;;;4971880;28;20504;-70
2022/02/26 01:14:31;;;;;;;8.13;3.20;;;5.00;99.90;;;;;;4978635;28;20472;-70
2022/02/26 01:16:57;;;;;;;10.27;3.03;;;5.00;99.90;;;;;;4976924;28;20450;-70
2022/02/26 01:19:22;;;;;;;3.17;2.60;;;4.90;99.90;;;;;;4983178;28;20244;-71
2022/02/26 01:21:49;;;;;;;3.27;1.87;;;4.90;99.90;;;;;;4971523;28;20989;-67
2022/02/26 01:24:15;;;;;;;8.10;2.70;;;4.90;99.90;;;;;;4972101;28;20589;-69
2022/02/26 01:26:40;;;;;;;3.40;2.53;;;4.90;99.90;;;;;;4984531;28;20465;-68
2022/02/26 01:29:06;;;;;;;3.53;2.23;;;4.90;99.90;;;;;;4981808;28;20260;-68
2022/02/26 01:31:33;;;;;;;4.93;2.67;;;4.90;99.90;;;;;;4983680;28;20705;-70
2022/02/26 01:34:00;;;;;;;3.90;2.40;;;4.90;99.90;;;;;;4977231;28;20465;-69
2022/02/26 01:36:26;;;;;;;6.83;2.87;;;4.90;99.90;;;;;;4980399;28;20465;-70
2022/02/26 01:38:52;;;;;;;7.27;2.60;;;4.90;99.90;;;;;;4976728;28;20461;-68
2022/02/26 01:41:18;;;;;;;3.13;2.33;;;4.90;99.90;;;;;;4983055;28;20460;-68
2022/02/26 01:43:44;;;;;;;6.23;3.50;;;4.90;99.90;;;;;;4972834;28;20512;-69
2022/02/26 01:46:11;;;;;;;4.13;2.47;;;4.90;99.90;;;;;;4966890;28;20279;-69
2022/02/26 01:48:37;;;;;;;9.73;3.20;;;4.90;99.90;;;;;;4991060;28;20214;-71
2022/02/26 01:51:04;;;;;;;4.97;2.80;;;4.90;99.90;;;;;;4976941;28;20477;-69
2022/02/26 01:53:30;;;;;;;15.93;4.47;;;4.90;99.90;;;;;;4975253;28;20464;-70
2022/02/26 01:55:56;;;;;;;5.37;3.60;;;4.90;99.90;;;;;;4980086;28;20449;-69
2022/02/26 01:58:22;;;;;;;7.33;3.73;;;4.80;99.90;;;;;;4976787;28;20576;-70
2022/02/26 02:00:48;;;;;;;6.47;3.17;;;4.80;99.90;;;;;;4980431;28;20222;-71
2022/02/26 02:03:13;;;;;;;10.53;3.37;;;4.80;99.90;;;;;;4974845;28;20826;-69
2022/02/26 02:05:39;;;;;;;7.50;3.97;;;4.80;99.90;;;;;;4981320;28;20220;-69
2022/02/26 02:08:05;;;;;;;12.10;3.83;;;4.80;99.90;;;;;;4969655;28;20532;-67
2022/02/26 02:10:33;;;;;;;8.93;3.43;;;4.70;99.90;;;;;;4983455;28;20309;-70
2022/02/26 02:13:00;;;;;;;5.50;3.87;;;4.80;99.90;;;;;;4981297;28;20236;-69
2022/02/26 02:15:40;;;;;;;6.77;3.50;;;4.80;99.90;;;;;;4982842;28;20469;-68
2022/02/26 02:18:08;;;;;;;4.93;3.47;;;4.80;99.90;;;;;;4973846;28;20516;-69
2022/02/26 02:20:34;;;;;;;4.50;2.63;;;4.80;99.90;;;;;;4975278;28;20462;-69
2022/02/26 02:23:00;;;;;;;7.80;3.57;;;4.70;99.90;;;;;;4992042;28;20460;-69
2022/02/26 02:25:35;;;;;;;9.80;4.00;;;4.70;99.90;;;;;;4981274;28;20217;-69
2022/02/26 02:28:03;;;;;;;8.73;3.70;;;4.70;99.90;;;;;;4944732;28;20284;-70
2022/02/26 02:30:30;;;;;;;16.03;4.40;;;4.70;99.90;;;;;;4979013;28;20476;-69
2022/02/26 02:32:57;;;;;;;3.90;3.30;;;4.70;99.90;;;;;;4979516;28;20548;-69
2022/02/26 02:35:30;;;;;;;4.37;3.63;;;4.70;99.90;;;;;;4982330;28;21059;-68
2022/02/26 02:37:59;;;;;;;7.83;3.43;;;4.60;99.90;;;;;;4979249;28;20460;-68
2022/02/26 02:40:25;;;;;;;8.10;2.77;;;4.60;99.90;;;;;;4981971;28;20556;-69
2022/02/26 02:42:53;;;;;;;6.10;3.23;;;4.60;99.90;;;;;;4980448;28;20459;-69
2022/02/26 02:45:20;;;;;;;3.43;2.70;;;4.60;99.90;;;;;;4982807;28;20456;-69
2022/02/26 02:47:46;;;;;;;7.13;3.50;;;4.60;99.90;;;;;;4979749;28;21383;-69
2022/02/26 02:50:12;;;;;;;4.90;2.83;;;4.60;99.90;;;;;;4984681;28;20465;-68
2022/02/26 02:52:38;;;;;;;4.70;3.00;;;4.50;99.90;;;;;;4986594;28;20469;-71
2022/02/26 02:55:05;;;;;;;4.33;2.90;;;4.50;99.90;;;;;;4983859;28;21178;-68
2022/02/26 02:57:31;;;;;;;7.90;3.43;;;4.50;99.90;;;;;;4986293;28;20253;-69
2022/02/26 02:59:57;;;;;;;6.37;3.33;;;4.50;99.90;;;;;;4982491;28;20484;-69
2022/02/26 03:02:22;;;;;;;9.00;4.20;;;4.50;99.90;;;;;;4983672;28;20640;-68
2022/02/26 03:04:48;;;;;;;4.50;3.10;;;4.50;99.90;;;;;;4983399;28;20321;-68
2022/02/26 03:07:14;;;;;;;4.07;3.07;;;4.50;99.90;;;;;;4979049;28;20229;-69
2022/02/26 03:09:39;;;;;;;4.07;2.93;;;4.50;99.90;;;;;;4988021;28;20226;-69
2022/02/26 03:12:07;;;;;;;3.13;2.67;;;4.50;99.90;;;;;;4984128;28;20245;-70
2022/02/26 03:14:33;;;;;;;3.10;2.80;;;4.50;99.90;;;;;;4979742;28;20463;-70
2022/02/26 03:16:59;;;;;;;6.60;3.20;;;4.50;99.90;;;;;;4967307;28;20465;-69
2022/02/26 03:19:25;;;;;;;4.67;2.97;;;4.50;99.90;;;;;;4974726;28;20540;-69
2022/02/26 03:21:51;;;;;;;11.03;3.17;;;4.50;99.90;;;;;;4977374;28;20217;-70
2022/02/26 03:24:16;;;;;;;6.40;3.00;;;4.50;99.90;;;;;;4976399;28;20224;-69
2022/02/26 03:26:42;;;;;;;7.13;3.33;;;4.50;99.90;;;;;;4985780;28;20308;-69
2022/02/26 03:29:09;;;;;;;5.23;3.17;;;4.50;99.90;;;;;;4980687;28;20229;-69
2022/02/26 03:31:36;;;;;;;9.57;3.57;;;4.50;99.90;;;;;;4982967;28;20227;-70
2022/02/26 03:34:02;;;;;;;10.00;3.27;;;4.50;99.90;;;;;;4979868;28;20468;-68
2022/02/26 03:36:32;;;;;;;5.17;2.80;;;4.50;99.90;;;;;;4975327;28;20485;-69
2022/02/26 03:38:58;;;;;;;8.00;3.27;;;4.50;99.90;;;;;;4972484;28;20465;-68
2022/02/26 03:41:23;;;;;;;3.63;3.00;;;4.50;99.90;;;;;;4966376;28;20822;-69
2022/02/26 03:43:50;;;;;;;4.93;3.53;;;4.50;99.90;;;;;;4993801;28;20214;-68
2022/02/26 03:46:15;;;;;;;3.30;2.90;;;4.50;99.90;;;;;;4985133;28;20461;-69
2022/02/26 03:48:41;;;;;;;4.17;2.43;;;4.50;99.90;;;;;;4982468;28;20672;-69
2022/02/26 03:51:07;;;;;;;7.07;3.53;;;4.40;99.90;;;;;;4981977;28;20653;-70
2022/02/26 03:53:33;;;;;;;10.03;3.13;;;4.40;99.90;;;;;;4987009;28;20224;-69
2022/02/26 03:55:59;;;;;;;6.93;3.47;;;4.40;99.90;;;;;;4982964;28;20815;-68
2022/02/26 03:58:25;;;;;;;5.43;2.70;;;4.40;99.90;;;;;;4985011;28;20221;-68
2022/02/26 04:00:51;;;;;;;4.00;2.60;;;4.30;99.90;;;;;;4980014;28;20461;-68
2022/02/26 04:03:17;;;;;;;17.30;3.40;;;4.30;99.90;;;;;;4986137;28;20464;-69
2022/02/26 04:05:43;;;;;;;7.20;3.57;;;4.30;99.90;;;;;;4981671;28;20245;-69
2022/02/26 04:08:08;;;;;;;3.10;2.60;;;4.20;99.90;;;;;;4983553;28;20596;-69
2022/02/26 04:10:34;;;;;;;4.97;3.30;;;4.30;99.90;;;;;;4986417;28;20225;-69
2022/02/26 04:13:00;;;;;;;4.40;3.10;;;4.10;99.90;;;;;;4982320;28;20233;-69
2022/02/26 04:15:26;;;;;;;4.07;3.10;;;4.10;99.90;;;;;;4996558;28;20364;-69
2022/02/26 04:17:51;;;;;;;6.17;3.17;;;4.10;99.90;;;;;;4964114;28;20218;-68
2022/02/26 04:20:17;;;;;;;3.57;3.07;;;4.00;99.90;;;;;;4988285;28;20229;-69
2022/02/26 04:22:43;;;;;;;7.07;3.03;;;4.00;99.90;;;;;;4981423;28;20602;-68
2022/02/26 04:25:09;;;;;;;5.93;4.47;;;4.10;99.90;;;;;;4976227;28;20304;-71
2022/02/26 04:27:34;;;;;;;5.53;3.50;;;4.10;99.90;;;;;;4971949;28;20234;-71
2022/02/26 04:30:00;;;;;;;10.37;3.93;;;4.10;99.90;;;;;;4973823;28;20236;-70
2022/02/26 04:32:26;;;;;;;19.70;4.43;;;4.10;99.90;;;;;;4969747;28;20291;-69
2022/02/26 04:34:52;;;;;;;6.03;3.40;;;4.20;99.90;;;;;;4968414;28;20876;-69
2022/02/26 04:37:20;;;;;;;4.27;3.37;;;4.20;99.90;;;;;;4979139;28;20690;-70
2022/02/26 04:39:47;;;;;;;8.73;3.83;;;4.10;99.90;;;;;;4960414;28;20325;-68
2022/02/26 04:42:13;;;;;;;4.37;3.03;;;4.10;99.90;;;;;;4973274;28;20460;-69
2022/02/26 04:44:39;;;;;;;6.00;3.20;;;4.10;99.90;;;;;;4970004;28;20461;-71
2022/02/26 04:47:05;;;;;;;3.17;2.87;;;4.00;99.90;;;;;;4980375;28;20308;-69
2022/02/26 04:49:31;;;;;;;3.93;3.60;;;4.00;99.90;;;;;;4976120;28;20360;-68
2022/02/26 04:51:56;;;;;;;8.30;3.83;;;4.00;99.90;;;;;;4979282;28;20576;-69
2022/02/26 04:54:22;;;;;;;8.03;3.53;;;4.00;99.90;;;;;;4967581;28;20722;-69
2022/02/26 04:56:48;;;;;;;6.97;3.70;;;3.90;99.90;;;;;;4972094;28;20214;-72
2022/02/26 04:59:13;;;;;;;5.77;3.07;;;3.90;99.90;;;;;;4983367;28;20763;-69
2022/02/26 05:01:39;;;;;;;5.90;4.20;;;4.00;99.90;;;;;;4981846;28;20209;-69
2022/02/26 05:04:05;;;;;;;6.60;3.30;;;4.00;99.90;;;;;;4976543;28;20691;-68
2022/02/26 05:06:31;;;;;;;4.63;3.50;;;4.10;99.90;;;;;;4982892;28;20465;-69
2022/02/26 05:08:56;;;;;;;7.33;3.60;;;4.10;99.90;;;;;;4978950;28;20236;-69
2022/02/26 05:11:22;;;;;;;5.33;3.00;;;4.10;99.90;;;;;;4983471;28;20325;-70
2022/02/26 05:13:48;;;;;;;12.20;3.57;;;4.10;99.90;;;;;;4972967;28;20219;-68
2022/02/26 05:16:14;;;;;;;6.10;3.37;;;4.10;99.90;;;;;;4981930;28;20229;-69
2022/02/26 05:18:40;;;;;;;4.93;3.63;;;4.10;99.90;;;;;;4981297;28;20296;-68
2022/02/26 05:21:05;;;;;;;5.20;3.43;;;4.10;99.90;;;;;;4990843;28;20225;-68
2022/02/26 05:23:31;;;;;;;7.13;3.70;;;4.10;99.90;;;;;;4972391;28;21009;-68
2022/02/26 05:25:57;;;;;;;6.60;3.60;;;4.10;99.90;;;;;;4963464;28;20226;-69
2022/02/26 05:28:23;;;;;;;7.03;4.03;;;4.10;99.90;;;;;;4979192;28;20218;-71
2022/02/26 05:30:48;;;;;;;7.77;3.73;;;4.10;99.90;;;;;;4980098;28;20224;-69
2022/02/26 05:33:14;;;;;;;8.43;3.63;;;4.10;99.90;;;;;;4980123;28;20242;-69
2022/02/26 05:35:40;;;;;;;13.10;4.20;;;4.10;99.90;;;;;;4981441;28;20210;-69
2022/02/26 05:38:05;;;;;;;5.47;3.50;;;4.00;99.90;;;;;;4971309;28;20328;-70
2022/02/26 05:40:31;;;;;;;7.57;4.13;;;4.00;99.90;;;;;;4981562;28;20222;-70
2022/02/26 05:42:57;;;;;;;6.13;4.40;;;4.00;99.90;;;;;;4975703;28;20682;-67
2022/02/26 05:45:23;;;;;;;6.70;3.83;;;4.00;99.90;;;;;;4973639;28;20218;-68
2022/02/26 05:47:49;;;;;;;7.67;4.23;;;4.00;99.90;;;;;;4973353;28;20231;-68
2022/02/26 05:50:14;;;;;;;7.73;3.60;;;3.90;99.90;;;;;;4975620;28;20540;-69
2022/02/26 05:52:41;;;;;;;7.70;3.80;;;3.90;99.90;;;;;;4981129;28;20246;-68
2022/02/26 05:55:07;;;;;;;6.50;3.97;;;3.90;99.90;;;;;;4977932;28;20292;-69
2022/02/26 05:57:33;;;;;;;10.50;4.17;;;3.80;99.90;;;;;;4982645;28;20838;-69
2022/02/26 05:59:58;;;;;;;13.50;4.10;;;3.80;99.90;;;;;;4977029;28;20468;-68
2022/02/26 06:02:24;;;;;;;9.73;4.03;;;3.90;99.90;;;;;;4972590;28;20222;-70
2022/02/26 06:04:49;;;;;;;8.57;3.33;;;3.80;99.90;;;;;;4974796;28;20248;-69
2022/02/26 06:07:15;;;;;;;4.40;3.53;;;3.70;99.90;;;;;;4981527;28;20225;-68
2022/02/26 06:09:41;;;;;;;5.07;3.37;;;3.70;99.90;;;;;;4982224;28;20232;-69
2022/02/26 06:12:08;;;;;;;5.50;3.80;;;3.60;99.90;;;;;;4973339;28;20232;-68
2022/02/26 06:14:34;;;;;;;7.03;3.67;;;3.60;99.90;;;;;;4976156;28;20256;-68
2022/02/26 06:16:59;;;;;;;10.23;3.60;;;3.70;99.90;;;;;;4963758;28;20497;-69
2022/02/26 06:19:25;;;;;;;5.23;3.80;;;3.50;99.90;;;;;;4974016;28;20316;-69
2022/02/26 06:21:51;;;;;;;7.60;3.60;;;3.50;99.90;;;;;;4969501;28;20226;-69
2022/02/26 06:24:17;;;;;;;9.13;4.03;;;3.50;99.90;;;;;;4980780;28;20292;-72
2022/02/26 06:26:43;;;;;;;17.40;4.63;;;3.50;99.90;;;;;;4985920;28;20221;-70
2022/02/26 06:29:09;;;;;;;8.53;4.00;;;3.60;99.90;;;;;;4981781;28;21070;-70
2022/02/26 06:31:34;;;;;;;8.33;4.40;;;3.60;99.90;;;;;;4969315;28;20474;-68
2022/02/26 06:34:00;;;;;;;6.23;3.93;;;3.70;99.90;;;;;;4981124;28;20218;-68
2022/02/26 06:36:26;;;;;;;5.40;4.03;;;3.70;99.90;;;;;;4986088;28;20217;-68
2022/02/26 06:38:51;;;;;;;10.40;4.80;;;3.70;99.90;;;;;;4981514;28;20305;-69
2022/02/26 06:41:17;;;;;;;12.80;5.60;;;3.70;99.90;;;;;;4984301;28;20229;-70
2022/02/26 06:43:43;;;;;;;9.10;5.17;;;3.70;99.90;;;;;;4972617;28;20282;-69
2022/02/26 06:46:11;;;;;;;7.53;5.87;;;3.60;99.90;;;;;;4980154;28;20244;-69
2022/02/26 06:48:37;;;;;;;9.97;5.80;;;3.70;99.90;;;;;;4986268;28;20241;-69
2022/02/26 06:51:03;;;;;;;19.97;7.70;;;3.70;99.90;;;;;;4980993;28;20521;-70
2022/02/26 06:53:28;;;;;;;12.23;5.83;;;3.60;99.90;;;;;;4984688;28;20468;-69
2022/02/26 06:55:54;;;;;;;8.47;5.03;;;3.70;99.90;;;;;;4993624;28;20230;-69
2022/02/26 06:58:20;;;;;;;8.80;5.63;;;3.60;99.90;;;;;;4975624;28;20219;-69
2022/02/26 07:00:45;;;;;;;10.60;5.17;;;3.70;99.90;;;;;;4981393;28;20317;-69
2022/02/26 07:03:11;;;;;;;18.60;8.77;;;3.70;99.90;;;;;;4997125;28;20313;-68
2022/02/26 07:05:37;;;;;;;16.83;8.60;;;3.70;99.90;;;;;;4980513;28;20230;-68
2022/02/26 07:08:03;;;;;;;11.63;7.00;;;3.80;99.90;;;;;;4997043;28;20229;-66
2022/02/26 07:10:29;;;;;;;19.80;9.20;;;3.80;99.90;;;;;;4984073;28;20238;-70
2022/02/26 07:12:54;;;;;;;25.93;11.90;;;3.80;99.90;;;;;;4978375;28;20233;-67
2022/02/26 07:15:20;;;;;;;22.77;10.33;;;3.80;99.90;;;;;;4980772;28;20305;-69
2022/02/26 07:17:46;;;;;;;17.87;9.60;;;3.80;99.90;;;;;;4993144;28;20232;-70
2022/02/26 07:20:12;;;;;;;18.90;9.10;;;3.80;99.90;;;;;;4983358;28;20241;-70
2022/02/26 07:22:38;;;;;;;13.17;7.50;;;3.80;99.90;;;;;;4980870;28;20222;-71
2022/02/26 07:25:04;;;;;;;12.43;7.80;;;3.90;99.90;;;;;;4974247;28;20553;-68
2022/02/26 07:27:30;;;;;;;14.93;7.90;;;3.90;99.90;;;;;;4979000;28;20483;-70
2022/02/26 07:29:55;;;;;;;11.90;7.03;;;3.90;99.90;;;;;;4977174;28;20469;-71
2022/02/26 07:32:21;;;;;;;8.27;6.43;;;3.90;99.90;;;;;;4981327;28;20252;-72
2022/02/26 07:34:47;;;;;;;13.30;6.40;;;3.90;99.90;;;;;;4992652;28;20229;-69
2022/02/26 07:37:12;;;;;;;10.37;5.50;;;3.90;99.90;;;;;;4982987;28;20224;-72
2022/02/26 07:39:38;;;;;;;12.63;5.83;;;4.00;99.90;;;;;;4980232;28;20770;-69
2022/02/26 07:42:04;;;;;;;7.63;4.80;;;4.00;99.90;;;;;;4978095;28;20311;-70
2022/02/26 07:44:30;;;;;;;13.80;4.77;;;4.00;99.90;;;;;;4979539;28;20225;-70
2022/02/26 07:46:55;;;;;;;10.13;4.97;;;4.00;99.90;;;;;;4974247;28;20464;-69
2022/02/26 07:49:21;;;;;;;9.40;6.10;;;4.00;99.90;;;;;;4982985;28;20699;-69
2022/02/26 07:51:47;;;;;;;7.57;6.47;;;4.00;99.90;;;;;;4976378;28;20218;-70
2022/02/26 07:54:12;;;;;;;23.57;7.33;;;4.10;99.90;;;;;;4980409;28;20875;-70
2022/02/26 07:56:38;;;;;;;9.10;5.90;;;4.10;99.90;;;;;;4985746;28;20217;-70
2022/02/26 07:59:04;;;;;;;9.80;5.70;;;4.10;99.90;;;;;;4984185;28;20225;-70
2022/02/26 08:01:29;;;;;;;9.03;5.93;;;4.20;99.90;;;;;;4981319;28;20785;-69
2022/02/26 08:03:55;;;;;;;10.70;7.00;;;4.20;99.90;;;;;;4976538;28;20214;-68
2022/02/26 08:06:21;;;;;;;12.90;6.43;;;4.20;99.90;;;;;;4980307;28;20217;-74
2022/02/26 08:08:47;;;;;;;10.40;5.30;;;4.30;99.90;;;;;;4974420;28;20221;-72
2022/02/26 08:11:12;;;;;;;10.20;4.87;;;4.30;99.90;;;;;;4979357;28;20716;-69
2022/02/26 08:13:38;;;;;;;10.30;5.00;;;4.40;99.90;;;;;;4978665;28;20454;-70
2022/02/26 08:16:04;;;;;;;7.30;4.63;;;4.40;99.90;;;;;;4980361;28;20274;-66
2022/02/26 08:18:30;;;;;;;5.23;4.33;;;4.40;99.90;;;;;;4980039;28;20245;-70
2022/02/26 08:20:57;;;;;;;9.03;4.20;;;4.50;99.90;;;;;;4976532;28;20230;-69
2022/02/26 08:23:22;;;;;;;5.97;4.20;;;4.50;99.90;;;;;;4978186;28;20225;-69
2022/02/26 08:25:48;;;;;;;9.47;4.63;;;4.50;99.90;;;;;;4974973;28;20462;-69
2022/02/26 08:28:14;;;;;;;7.20;3.47;;;4.60;99.90;;;;;;4978079;28;20234;-69
2022/02/26 08:30:39;;;;;;;7.00;3.77;;;4.60;99.90;;;;;;4979361;28;20230;-70
2022/02/26 08:33:05;;;;;;;13.93;4.20;;;4.70;99.90;;;;;;4973238;28;20712;-68
2022/02/26 08:35:31;;;;;;;9.37;4.30;;;4.70;99.90;;;;;;4977056;28;20218;-71
2022/02/26 08:37:57;;;;;;;5.10;3.47;;;4.80;99.90;;;;;;4975629;28;20690;-68
2022/02/26 08:40:23;;;;;;;9.43;3.37;;;4.80;99.90;;;;;;4977106;28;20218;-71
2022/02/26 08:42:48;;;;;;;4.30;3.63;;;4.90;99.90;;;;;;4977236;28;20565;-68
2022/02/26 08:45:15;;;;;;;10.43;4.50;;;4.90;99.90;;;;;;4977581;28;20225;-70
2022/02/26 08:47:42;;;;;;;8.57;3.87;;;4.90;99.90;;;;;;4983417;28;20230;-69
2022/02/26 08:50:11;;;;;;;5.00;3.57;;;4.90;99.90;;;;;;4975263;28;20921;-68
2022/02/26 08:52:39;;;;;;;4.50;2.70;;;5.00;99.90;;;;;;4967249;28;20473;-69
2022/02/26 08:55:06;;;;;;;5.23;2.97;;;5.00;99.90;;;;;;4973693;28;20465;-67
2022/02/26 08:57:31;;;;;;;7.27;3.27;;;5.10;99.90;;;;;;4981776;28;21108;-68
2022/02/26 08:59:57;;;;;;;7.20;3.60;;;5.20;99.90;;;;;;4977085;28;20548;-69
2022/02/26 09:02:23;;;;;;;4.10;2.50;;;5.20;99.90;;;;;;4980570;28;20214;-70
2022/02/26 09:04:49;;;;;;;8.10;3.17;;;5.30;99.90;;;;;;4975890;28;20214;-69
2022/02/26 09:07:15;;;;;;;9.13;2.50;;;5.40;99.90;;;;;;4981265;28;20469;-69
2022/02/26 09:09:41;;;;;;;10.13;3.27;;;5.40;99.90;;;;;;4992963;28;20226;-69
2022/02/26 09:12:07;;;;;;;8.87;3.40;;;5.40;99.90;;;;;;4977508;28;20237;-73
2022/02/26 09:14:33;;;;;;;6.40;3.00;;;5.40;99.90;;;;;;4974479;28;20233;-68
2022/02/26 09:16:58;;;;;;;6.80;3.70;;;5.40;99.90;;;;;;4977228;28;20469;-69
2022/02/26 09:19:24;;;;;;;6.20;2.70;;;5.40;99.90;;;;;;4975496;28;20250;-70
2022/02/26 09:21:50;;;;;;;7.20;2.40;;;5.50;99.90;;;;;;4975045;28;20213;-69
2022/02/26 09:24:15;;;;;;;6.33;2.33;;;5.60;99.90;;;;;;4981385;28;20218;-71
2022/02/26 09:26:41;;;;;;;11.03;3.47;;;5.70;99.90;;;;;;4981054;28;20289;-68
2022/02/26 09:29:07;;;;;;;2.20;1.97;;;5.70;99.90;;;;;;4977881;28;20218;-68
2022/02/26 09:31:33;;;;;;;3.40;2.17;;;5.70;99.90;;;;;;4981488;28;20228;-71
2022/02/26 09:33:58;;;;;;;3.47;2.83;;;5.80;99.90;;;;;;4977781;28;20229;-69
2022/02/26 09:36:24;;;;;;;7.37;2.93;;;5.80;99.90;;;;;;4979188;28;20218;-73
2022/02/26 09:38:50;;;;;;;4.77;2.87;;;6.00;99.90;;;;;;4974945;28;20214;-67
2022/02/26 09:41:15;;;;;;;14.47;3.20;;;6.00;99.90;;;;;;4980504;28;20329;-71
2022/02/26 09:43:41;;;;;;;5.87;2.47;;;6.10;99.90;;;;;;4977792;28;20687;-70
2022/02/26 09:46:08;;;;;;;5.17;3.03;;;6.20;99.90;;;;;;4974123;28;20246;-72
2022/02/26 09:48:35;;;;;;;7.27;3.73;;;6.30;99.90;;;;;;4964398;28;20464;-70
2022/02/26 09:51:03;;;;;;;10.47;4.77;;;6.30;99.90;;;;;;4974537;28;20996;-71
2022/02/26 09:53:29;;;;;;;7.50;3.47;;;6.40;99.90;;;;;;4977531;28;20480;-69
2022/02/26 09:55:56;;;;;;;4.80;2.97;;;6.40;99.90;;;;;;4977222;28;20859;-70
2022/02/26 09:58:22;;;;;;;4.07;2.60;;;6.50;99.90;;;;;;4989808;28;20482;-68
2022/02/26 10:00:48;;;;;;;4.37;2.30;;;6.50;99.90;;;;;;4975249;28;21048;-69
2022/02/26 10:03:30;;;;;;;5.20;3.03;;;6.50;99.90;;;;;;4981378;28;20549;-69
2022/02/26 10:06:06;;;;;;;7.10;3.00;;;6.40;99.90;;;;;;4976329;28;20214;-73
2022/02/26 10:08:40;;;;;;;8.47;2.33;;;6.50;99.90;;;;;;4979030;28;20551;-71
2022/02/26 10:11:19;;;;;;;2.00;1.70;;;6.50;99.90;;;;;;4974165;28;20588;-71
2022/02/26 10:13:45;;;;;;;3.37;1.77;;;6.40;99.90;;;;;;4978343;28;20556;-69
2022/02/26 10:16:10;;;;;;;5.37;1.87;;;6.40;99.90;;;;;;4977258;28;20555;-73
2022/02/26 10:18:36;;;;;;;10.10;2.50;;;6.40;99.90;;;;;;4980294;28;20673;-70
2022/02/26 10:21:02;;;;;;;6.30;3.03;;;6.50;99.90;;;;;;4972283;28;20229;-68
2022/02/26 10:23:29;;;;;;;5.13;2.60;;;6.50;99.90;;;;;;4976271;28;20273;-72
2022/02/26 10:26:08;;;;;;;3.00;1.80;;;6.50;99.90;;;;;;4971698;28;20833;-71
2022/02/26 10:28:39;;;;;;;4.57;2.60;;;6.40;99.90;;;;;;4974832;28;20539;-69
2022/02/26 10:31:06;;;;;;;8.33;3.00;;;6.30;99.90;;;;;;4974478;28;20466;-71
2022/02/26 10:33:32;;;;;;;5.63;2.50;;;6.30;99.90;;;;;;4979343;28;20481;-69
2022/02/26 10:36:04;;;;;;;9.07;2.63;;;6.20;99.90;;;;;;4987489;28;20917;-69
2022/02/26 10:38:32;;;;;;;5.00;2.00;;;6.30;99.90;;;;;;4978452;28;20308;-69
2022/02/26 10:40:58;;;;;;;3.67;1.73;;;6.40;99.90;;;;;;4973093;28;20482;-68
2022/02/26 10:43:42;;;;;;;11.00;4.47;;;6.50;99.90;;;;;;4973541;28;20465;-68
2022/02/26 10:46:17;;;;;;;11.67;5.77;;;6.40;99.90;;;;;;4990539;28;20230;-69
2022/02/26 10:48:44;;;;;;;11.00;5.00;;;6.30;99.90;;;;;;4970773;28;20465;-67
2022/02/26 10:51:18;;;;;;;7.20;3.40;;;6.30;99.90;;;;;;4973392;28;20497;-68
2022/02/26 10:53:45;;;;;;;7.90;3.77;;;6.30;99.90;;;;;;4980076;28;21012;-68
2022/02/26 10:56:12;;;;;;;4.00;2.10;;;6.40;99.90;;;;;;4978468;28;20485;-73
2022/02/26 10:58:40;;;;;;;3.07;1.97;;;6.50;99.90;;;;;;4979315;28;20567;-68
2022/02/26 11:01:08;;;;;;;3.60;1.70;;;6.60;99.90;;;;;;4977548;28;20464;-70
2022/02/26 11:03:35;;;;;;;2.30;1.50;;;6.70;99.90;;;;;;4977002;28;20476;-69
2022/02/26 11:06:03;;;;;;;2.50;1.57;;;6.70;99.90;;;;;;4977555;28;20590;-68
2022/02/26 11:08:30;;;;;;;6.77;1.43;;;6.80;99.90;;;;;;4980138;28;20453;-68
2022/02/26 11:10:58;;;;;;;1.50;1.40;;;6.90;99.90;;;;;;4968392;28;21122;-69
2022/02/26 11:13:24;;;;;;;2.97;1.77;;;7.00;99.90;;;;;;4998047;28;20478;-67
2022/02/26 11:15:53;;;;;;;4.13;1.80;;;7.10;99.90;;;;;;4984049;28;21034;-68
2022/02/26 11:18:20;;;;;;;6.33;1.60;;;7.10;99.90;;;;;;4984042;28;20222;-70
2022/02/26 11:20:46;;;;;;;3.10;1.70;;;7.00;99.90;;;;;;4992592;28;20815;-69
2022/02/26 11:23:13;;;;;;;6.37;3.73;;;6.90;99.90;;;;;;4986260;28;20457;-68
2022/02/26 11:25:39;;;;;;;11.20;6.17;;;7.00;99.90;;;;;;4985822;28;20551;-70
2022/02/26 11:28:11;;;;;;;13.13;5.30;;;7.20;99.90;;;;;;4965803;28;20461;-70
2022/02/26 11:30:43;;;;;;;18.23;7.80;;;7.30;99.90;;;;;;4987448;28;20547;-69
2022/02/26 11:33:10;;;;;;;23.83;9.87;;;7.20;99.90;;;;;;4977961;28;20473;-73
2022/02/26 11:35:37;;;;;;;24.67;12.17;;;7.30;99.90;;;;;;5000892;28;20449;-69
2022/02/26 11:38:08;;;;;;;17.10;8.97;;;7.30;99.90;;;;;;4981801;28;20461;-68
2022/02/26 11:40:34;;;;;;;8.83;5.10;;;7.20;99.90;;;;;;4968436;28;20465;-69
2022/02/26 11:43:00;;;;;;;8.53;4.17;;;7.20;99.90;;;;;;4983217;28;20875;-69
2022/02/26 11:45:29;;;;;;;4.70;3.20;;;7.40;99.90;;;;;;4985047;28;20552;-69
2022/02/26 11:47:56;;;;;;;9.07;2.43;;;7.60;99.90;;;;;;4978036;28;20473;-69
2022/02/26 11:50:50;;;;;;;4.00;2.50;;;7.80;99.90;;;;;;4984006;28;20477;-71
2022/02/26 11:53:22;;;;;;;12.13;3.57;;;8.00;99.90;;;;;;4982753;28;21060;-71
2022/02/26 11:55:49;;;;;;;8.83;3.80;;;8.00;99.90;;;;;;4976925;28;20469;-73
2022/02/26 11:58:26;;;;;;;7.60;2.97;;;8.00;99.90;;;;;;4962841;28;20461;-68
2022/02/26 12:01:00;;;;;;;7.63;2.37;;;8.10;99.90;;;;;;4993726;28;20989;-72
2022/02/26 12:03:33;;;;;;;6.77;2.87;;;8.10;99.90;;;;;;4980121;28;20485;-71
2022/02/26 12:06:07;;;;;;;3.40;2.30;;;8.10;99.90;;;;;;4989764;28;20471;-68
2022/02/26 12:08:38;;;;;;;2.90;1.80;;;8.10;99.90;;;;;;4995797;28;20550;-68
2022/02/26 12:11:10;;;;;;;2.90;2.07;;;8.20;99.90;;;;;;4965853;28;22346;-72
2022/02/26 12:13:36;;;;;;;8.80;2.80;;;8.20;99.90;;;;;;4973610;28;20495;-68
2022/02/26 12:16:27;;;;;;;6.00;2.10;;;8.30;99.90;;;;;;4974831;28;20469;-72
2022/02/26 12:19:26;;;;;;;5.90;2.07;;;8.50;99.90;;;;;;4979775;28;20476;-71
2022/02/26 12:22:03;;;;;;;2.40;1.50;;;8.50;99.90;;;;;;4980363;28;20896;-69
2022/02/26 12:24:33;;;;;;;10.33;1.80;;;8.50;99.90;;;;;;4981167;28;20520;-71
2022/02/26 12:27:01;;;;;;;3.90;2.10;;;8.60;99.90;;;;;;4980880;28;20461;-69
2022/02/26 12:29:26;;;;;;;2.23;1.33;;;8.60;99.90;;;;;;4980022;28;20468;-68
2022/02/26 12:31:54;;;;;;;3.37;2.03;;;8.70;99.90;;;;;;4978252;28;20481;-68
2022/02/26 12:34:20;;;;;;;6.63;2.90;;;8.70;99.90;;;;;;4965207;28;20342;-69
2022/02/26 12:37:12;;;;;;;4.30;2.10;;;8.90;99.90;;;;;;4962155;28;20489;-69
2022/02/26 12:39:38;;;;;;;3.37;2.00;;;8.90;99.90;;;;;;4980682;28;20222;-69
2022/02/26 12:42:04;;;;;;;2.53;1.20;;;8.70;99.90;;;;;;4981738;28;20463;-69
2022/02/26 12:44:30;;;;;;;3.47;1.60;;;8.60;99.90;;;;;;4983924;28;20487;-68
2022/02/26 12:46:57;;;;;;;4.63;1.60;;;8.70;99.90;;;;;;4975143;28;20993;-69
2022/02/26 12:49:23;;;;;;;12.03;1.80;;;8.70;99.90;;;;;;4981692;28;20275;-69
2022/02/26 12:51:52;;;;;;;1.90;1.27;;;8.80;99.90;;;;;;4980516;28;20481;-73
2022/02/26 12:54:28;;;;;;;2.50;1.20;;;8.80;99.90;;;;;;4982651;28;20452;-69